sensor_id;sensor_type;location;lat;lon;timestamp;P1;durP1;ratioP1;P2;durP2;ratioP2
56746;SDS011;42623;49.978;9.966;2023-10-08T00:00:00;5.28;;;2.45;;
56746;SDS011;42623;49.978;9.966;2023-10-08T00:00:30;6.63;;;2.90;;
56746;SDS011;42623;49.978;9.966;2023-10-08T00:00:53;5.18;;;2.65;;
56746;SDS011;42623;49.978;9.966;2023-10-08T00:01:05;5.88;;;2.75;;
56746;SDS011;42623;49.978;9.966;2023-10-08T00:01:21;5.93;;;2.75;;
56746;SDS011;42623;49.978;9.966;2023-10-08T00:01:31;5.57;;;2.67;;
56746;SDS011;42623;49.978;9.966;2023-10-08T00:01:43;6.88;;;2.88;;
56746;SDS011;42623;49.978;9.966;2023-10-08T00:01:53;7.20;;;3.23;;
56746;SDS011;42623;49.978;9.966;2023-10-08T00:02:05;7.93;;;3.35;;
56746;SDS011;42623;49.978;9.966;2023-10-08T00:02:18;6.80;;;2.83;;
56746;SDS011;42623;49.978;9.966;2023-10-08T00:02:32;5.95;;;2.50;;
56746;SDS011;42623;49.978;9.966;2023-10-08T00:02:42;5.30;;;2.57;;
56746;SDS011;42623;49.978;9.966;2023-10-08T00:02:52;5.43;;;2.80;;
56746;SDS011;42623;49.978;9.966;2023-10-08T00:03:03;4.83;;;2.50;;
56746;SDS011;42623;49.978;9.966;2023-10-08T00:03:15;5.43;;;2.88;;
56746;SDS011;42623;49.978;9.966;2023-10-08T00:03:30;7.28;;;3.30;;
56746;SDS011;42623;49.978;9.966;2023-10-08T00:03:43;6.68;;;2.92;;
56746;SDS011;42623;49.978;9.966;2023-10-08T00:03:58;5.90;;;2.80;;
56746;SDS011;42623;49.978;9.966;2023-10-08T00:04:10;5.90;;;2.90;;
56746;SDS011;42623;49.978;9.966;2023-10-08T00:04:21;5.30;;;2.60;;
56746;SDS011;42623;49.978;9.966;2023-10-08T00:04:34;5.00;;;2.40;;
56746;SDS011;42623;49.978;9.966;2023-10-08T00:04:50;5.32;;;2.70;;
56746;SDS011;42623;49.978;9.966;2023-10-08T00:05:04;5.32;;;2.60;;
56746;SDS011;42623;49.978;9.966;2023-10-08T00:05:15;5.07;;;2.42;;
56746;SDS011;42623;49.978;9.966;2023-10-08T00:05:26;5.70;;;2.50;;
56746;SDS011;42623;49.978;9.966;2023-10-08T00:05:37;5.50;;;2.70;;
56746;SDS011;42623;49.978;9.966;2023-10-08T00:05:48;5.25;;;2.53;;
56746;SDS011;42623;49.978;9.966;2023-10-08T00:06:02;4.82;;;2.22;;
56746;SDS011;42623;49.978;9.966;2023-10-08T00:06:19;4.97;;;2.30;;
56746;SDS011;42623;49.978;9.966;2023-10-08T00:06:30;5.53;;;2.55;;
56746;SDS011;42623;49.978;9.966;2023-10-08T00:06:40;5.60;;;2.65;;
56746;SDS011;42623;49.978;9.966;2023-10-08T00:06:50;5.70;;;2.80;;
56746;SDS011;42623;49.978;9.966;2023-10-08T00:07:05;5.22;;;2.65;;
56746;SDS011;42623;49.978;9.966;2023-10-08T00:07:18;4.80;;;2.55;;
56746;SDS011;42623;49.978;9.966;2023-10-08T00:07:31;4.93;;;2.47;;
56746;SDS011;42623;49.978;9.966;2023-10-08T00:07:41;5.73;;;2.70;;
56746;SDS011;42623;49.978;9.966;2023-10-08T00:07:52;5.85;;;2.65;;
56746;SDS011;42623;49.978;9.966;2023-10-08T00:08:06;4.93;;;2.30;;
56746;SDS011;42623;49.978;9.966;2023-10-08T00:08:16;5.43;;;2.50;;
56746;SDS011;42623;49.978;9.966;2023-10-08T00:08:26;5.67;;;2.67;;
56746;SDS011;42623;49.978;9.966;2023-10-08T00:08:36;6.47;;;3.00;;
56746;SDS011;42623;49.978;9.966;2023-10-08T00:08:47;5.50;;;2.63;;
56746;SDS011;42623;49.978;9.966;2023-10-08T00:08:57;6.32;;;2.58;;
56746;SDS011;42623;49.978;9.966;2023-10-08T00:09:10;6.47;;;2.38;;
56746;SDS011;42623;49.978;9.966;2023-10-08T00:09:21;8.23;;;2.72;;
56746;SDS011;42623;49.978;9.966;2023-10-08T00:09:31;7.53;;;2.67;;
56746;SDS011;42623;49.978;9.966;2023-10-08T00:09:45;6.00;;;2.78;;
56746;SDS011;42623;49.978;9.966;2023-10-08T00:09:55;5.23;;;2.53;;
56746;SDS011;42623;49.978;9.966;2023-10-08T00:10:05;5.00;;;2.47;;
56746;SDS011;42623;49.978;9.966;2023-10-08T00:10:16;5.38;;;2.67;;
56746;SDS011;42623;49.978;9.966;2023-10-08T00:10:26;6.07;;;3.00;;
56746;SDS011;42623;49.978;9.966;2023-10-08T00:10:37;6.17;;;3.20;;
56746;SDS011;42623;49.978;9.966;2023-10-08T00:10:49;5.93;;;3.13;;
56746;SDS011;42623;49.978;9.966;2023-10-08T00:11:01;5.82;;;3.00;;
56746;SDS011;42623;49.978;9.966;2023-10-08T00:11:20;5.32;;;2.42;;
56746;SDS011;42623;49.978;9.966;2023-10-08T00:11:34;5.82;;;2.85;;
56746;SDS011;42623;49.978;9.966;2023-10-08T00:11:44;6.10;;;3.08;;
56746;SDS011;42623;49.978;9.966;2023-10-08T00:12:01;5.40;;;2.78;;
56746;SDS011;42623;49.978;9.966;2023-10-08T00:12:11;6.00;;;2.70;;
56746;SDS011;42623;49.978;9.966;2023-10-08T00:12:23;7.15;;;2.70;;
56746;SDS011;42623;49.978;9.966;2023-10-08T00:12:33;7.10;;;2.80;;
56746;SDS011;42623;49.978;9.966;2023-10-08T00:12:43;5.83;;;2.90;;
56746;SDS011;42623;49.978;9.966;2023-10-08T00:12:57;5.88;;;2.97;;
56746;SDS011;42623;49.978;9.966;2023-10-08T00:13:08;5.73;;;3.10;;
56746;SDS011;42623;49.978;9.966;2023-10-08T00:13:19;7.35;;;3.40;;
56746;SDS011;42623;49.978;9.966;2023-10-08T00:13:29;7.28;;;3.05;;
56746;SDS011;42623;49.978;9.966;2023-10-08T00:13:39;7.60;;;3.03;;
56746;SDS011;42623;49.978;9.966;2023-10-08T00:13:49;6.97;;;3.07;;
56746;SDS011;42623;49.978;9.966;2023-10-08T00:14:00;8.17;;;3.63;;
56746;SDS011;42623;49.978;9.966;2023-10-08T00:14:11;7.22;;;3.47;;
56746;SDS011;42623;49.978;9.966;2023-10-08T00:14:27;6.28;;;2.83;;
56746;SDS011;42623;49.978;9.966;2023-10-08T00:14:38;6.27;;;2.70;;
56746;SDS011;42623;49.978;9.966;2023-10-08T00:14:54;5.75;;;2.88;;
56746;SDS011;42623;49.978;9.966;2023-10-08T00:15:04;4.95;;;2.53;;
56746;SDS011;42623;49.978;9.966;2023-10-08T00:15:18;4.72;;;2.65;;
56746;SDS011;42623;49.978;9.966;2023-10-08T00:15:29;5.10;;;2.83;;
56746;SDS011;42623;49.978;9.966;2023-10-08T00:15:40;5.38;;;2.78;;
56746;SDS011;42623;49.978;9.966;2023-10-08T00:15:59;6.18;;;2.53;;
56746;SDS011;42623;49.978;9.966;2023-10-08T00:16:10;6.90;;;2.83;;
56746;SDS011;42623;49.978;9.966;2023-10-08T00:16:28;7.05;;;3.33;;
56746;SDS011;42623;49.978;9.966;2023-10-08T00:16:38;5.63;;;2.83;;
56746;SDS011;42623;49.978;9.966;2023-10-08T00:16:49;5.78;;;2.60;;
56746;SDS011;42623;49.978;9.966;2023-10-08T00:16:59;6.10;;;2.65;;
56746;SDS011;42623;49.978;9.966;2023-10-08T00:17:14;6.53;;;2.80;;
56746;SDS011;42623;49.978;9.966;2023-10-08T00:17:30;5.82;;;2.80;;
56746;SDS011;42623;49.978;9.966;2023-10-08T00:17:41;5.30;;;2.67;;
56746;SDS011;42623;49.978;9.966;2023-10-08T00:17:55;5.40;;;2.53;;
56746;SDS011;42623;49.978;9.966;2023-10-08T00:18:07;5.07;;;2.50;;
56746;SDS011;42623;49.978;9.966;2023-10-08T00:19:19;5.40;;;2.50;;
56746;SDS011;42623;49.978;9.966;2023-10-08T00:19:29;5.07;;;2.50;;
56746;SDS011;42623;49.978;9.966;2023-10-08T00:19:59;5.95;;;2.88;;
56746;SDS011;42623;49.978;9.966;2023-10-08T00:20:11;6.53;;;2.83;;
56746;SDS011;42623;49.978;9.966;2023-10-08T00:20:26;6.55;;;2.88;;
56746;SDS011;42623;49.978;9.966;2023-10-08T00:20:44;5.43;;;2.78;;
56746;SDS011;42623;49.978;9.966;2023-10-08T00:21:17;4.97;;;2.47;;
56746;SDS011;42623;49.978;9.966;2023-10-08T00:21:44;5.30;;;2.38;;
56746;SDS011;42623;49.978;9.966;2023-10-08T00:21:55;5.88;;;2.75;;
56746;SDS011;42623;49.978;9.966;2023-10-08T00:22:14;6.32;;;2.75;;
56746;SDS011;42623;49.978;9.966;2023-10-08T00:22:28;6.63;;;2.85;;
56746;SDS011;42623;49.978;9.966;2023-10-08T00:22:41;7.03;;;2.78;;
56746;SDS011;42623;49.978;9.966;2023-10-08T00:22:51;6.57;;;2.70;;
56746;SDS011;42623;49.978;9.966;2023-10-08T00:23:05;7.03;;;2.95;;
56746;SDS011;42623;49.978;9.966;2023-10-08T00:23:17;6.40;;;3.00;;
56746;SDS011;42623;49.978;9.966;2023-10-08T00:23:27;5.78;;;3.05;;
56746;SDS011;42623;49.978;9.966;2023-10-08T00:23:38;5.63;;;3.00;;
56746;SDS011;42623;49.978;9.966;2023-10-08T00:24:07;5.68;;;2.65;;
56746;SDS011;42623;49.978;9.966;2023-10-08T00:24:19;5.85;;;2.63;;
56746;SDS011;42623;49.978;9.966;2023-10-08T00:24:36;5.97;;;2.80;;
56746;SDS011;42623;49.978;9.966;2023-10-08T00:24:50;5.28;;;2.67;;
56746;SDS011;42623;49.978;9.966;2023-10-08T00:25:07;5.00;;;2.63;;
56746;SDS011;42623;49.978;9.966;2023-10-08T00:25:21;5.40;;;2.85;;
56746;SDS011;42623;49.978;9.966;2023-10-08T00:25:31;5.80;;;2.83;;
56746;SDS011;42623;49.978;9.966;2023-10-08T00:25:43;5.53;;;2.67;;
56746;SDS011;42623;49.978;9.966;2023-10-08T00:25:57;6.05;;;2.58;;
56746;SDS011;42623;49.978;9.966;2023-10-08T00:26:08;5.78;;;2.33;;
56746;SDS011;42623;49.978;9.966;2023-10-08T00:26:19;5.87;;;2.37;;
56746;SDS011;42623;49.978;9.966;2023-10-08T00:26:37;6.20;;;2.80;;
56746;SDS011;42623;49.978;9.966;2023-10-08T00:26:50;5.97;;;2.88;;
56746;SDS011;42623;49.978;9.966;2023-10-08T00:27:00;6.73;;;3.20;;
56746;SDS011;42623;49.978;9.966;2023-10-08T00:27:10;8.13;;;3.30;;
56746;SDS011;42623;49.978;9.966;2023-10-08T00:27:24;7.50;;;2.95;;
56746;SDS011;42623;49.978;9.966;2023-10-08T00:27:34;8.53;;;2.90;;
56746;SDS011;42623;49.978;9.966;2023-10-08T00:27:49;8.25;;;2.90;;
56746;SDS011;42623;49.978;9.966;2023-10-08T00:28:01;8.55;;;2.95;;
56746;SDS011;42623;49.978;9.966;2023-10-08T00:28:11;7.07;;;2.88;;
56746;SDS011;42623;49.978;9.966;2023-10-08T00:28:23;7.20;;;3.03;;
56746;SDS011;42623;49.978;9.966;2023-10-08T00:28:34;6.40;;;3.15;;
56746;SDS011;42623;49.978;9.966;2023-10-08T00:28:44;5.90;;;3.17;;
56746;SDS011;42623;49.978;9.966;2023-10-08T00:28:58;7.03;;;3.25;;
56746;SDS011;42623;49.978;9.966;2023-10-08T00:29:16;7.78;;;3.20;;
56746;SDS011;42623;49.978;9.966;2023-10-08T00:29:26;7.10;;;3.10;;
56746;SDS011;42623;49.978;9.966;2023-10-08T00:29:36;6.65;;;2.80;;
56746;SDS011;42623;49.978;9.966;2023-10-08T00:29:50;6.90;;;2.75;;
56746;SDS011;42623;49.978;9.966;2023-10-08T00:30:00;5.72;;;2.63;;
56746;SDS011;42623;49.978;9.966;2023-10-08T00:30:12;5.10;;;2.53;;
56746;SDS011;42623;49.978;9.966;2023-10-08T00:30:27;6.93;;;2.80;;
56746;SDS011;42623;49.978;9.966;2023-10-08T00:30:38;7.27;;;2.93;;
56746;SDS011;42623;49.978;9.966;2023-10-08T00:30:48;5.55;;;2.55;;
56746;SDS011;42623;49.978;9.966;2023-10-08T00:31:02;5.10;;;2.30;;
56746;SDS011;42623;49.978;9.966;2023-10-08T00:31:21;6.03;;;2.90;;
56746;SDS011;42623;49.978;9.966;2023-10-08T00:31:34;5.70;;;2.88;;
56746;SDS011;42623;49.978;9.966;2023-10-08T00:31:48;5.07;;;2.38;;
56746;SDS011;42623;49.978;9.966;2023-10-08T00:32:01;5.85;;;2.83;;
56746;SDS011;42623;49.978;9.966;2023-10-08T00:32:21;7.00;;;3.05;;
56746;SDS011;42623;49.978;9.966;2023-10-08T00:32:31;6.37;;;2.90;;
56746;SDS011;42623;49.978;9.966;2023-10-08T00:32:41;6.33;;;3.00;;
56746;SDS011;42623;49.978;9.966;2023-10-08T00:32:52;5.53;;;2.90;;
56746;SDS011;42623;49.978;9.966;2023-10-08T00:33:02;4.97;;;2.55;;
56746;SDS011;42623;49.978;9.966;2023-10-08T00:33:13;4.93;;;2.40;;
56746;SDS011;42623;49.978;9.966;2023-10-08T00:33:24;5.47;;;2.60;;
56746;SDS011;42623;49.978;9.966;2023-10-08T00:33:34;5.37;;;2.57;;
56746;SDS011;42623;49.978;9.966;2023-10-08T00:33:44;5.60;;;2.77;;
56746;SDS011;42623;49.978;9.966;2023-10-08T00:33:55;5.95;;;3.00;;
56746;SDS011;42623;49.978;9.966;2023-10-08T00:34:06;6.97;;;3.33;;
56746;SDS011;42623;49.978;9.966;2023-10-08T00:34:22;7.30;;;3.17;;
56746;SDS011;42623;49.978;9.966;2023-10-08T00:34:34;6.88;;;3.00;;
56746;SDS011;42623;49.978;9.966;2023-10-08T00:34:47;6.47;;;2.80;;
56746;SDS011;42623;49.978;9.966;2023-10-08T00:34:57;6.37;;;2.67;;
56746;SDS011;42623;49.978;9.966;2023-10-08T00:35:09;6.07;;;2.67;;
56746;SDS011;42623;49.978;9.966;2023-10-08T00:35:23;6.05;;;2.92;;
56746;SDS011;42623;49.978;9.966;2023-10-08T00:35:38;6.00;;;2.95;;
56746;SDS011;42623;49.978;9.966;2023-10-08T00:35:49;6.50;;;3.20;;
56746;SDS011;42623;49.978;9.966;2023-10-08T00:35:59;7.03;;;3.17;;
56746;SDS011;42623;49.978;9.966;2023-10-08T00:36:10;7.80;;;3.43;;
56746;SDS011;42623;49.978;9.966;2023-10-08T00:36:30;6.70;;;3.17;;
56746;SDS011;42623;49.978;9.966;2023-10-08T00:36:40;6.05;;;2.92;;
56746;SDS011;42623;49.978;9.966;2023-10-08T00:36:51;6.57;;;3.00;;
56746;SDS011;42623;49.978;9.966;2023-10-08T00:37:01;6.70;;;2.80;;
56746;SDS011;42623;49.978;9.966;2023-10-08T00:37:13;6.35;;;2.65;;
56746;SDS011;42623;49.978;9.966;2023-10-08T00:37:24;5.38;;;2.67;;
56746;SDS011;42623;49.978;9.966;2023-10-08T00:37:36;6.00;;;2.97;;
56746;SDS011;42623;49.978;9.966;2023-10-08T00:37:47;5.77;;;2.97;;
56746;SDS011;42623;49.978;9.966;2023-10-08T00:37:58;5.50;;;2.67;;
56746;SDS011;42623;49.978;9.966;2023-10-08T00:38:10;6.95;;;2.60;;
56746;SDS011;42623;49.978;9.966;2023-10-08T00:38:30;7.57;;;2.92;;
56746;SDS011;42623;49.978;9.966;2023-10-08T00:38:45;6.03;;;2.83;;
56746;SDS011;42623;49.978;9.966;2023-10-08T00:38:57;5.28;;;2.67;;
56746;SDS011;42623;49.978;9.966;2023-10-08T00:39:11;6.47;;;2.88;;
56746;SDS011;42623;49.978;9.966;2023-10-08T00:39:26;7.47;;;3.28;;
56746;SDS011;42623;49.978;9.966;2023-10-08T00:39:37;6.40;;;3.10;;
56746;SDS011;42623;49.978;9.966;2023-10-08T00:39:47;6.03;;;3.08;;
56746;SDS011;42623;49.978;9.966;2023-10-08T00:39:59;5.50;;;2.92;;
56746;SDS011;42623;49.978;9.966;2023-10-08T00:40:10;6.35;;;3.05;;
56746;SDS011;42623;49.978;9.966;2023-10-08T00:40:37;6.60;;;2.90;;
56746;SDS011;42623;49.978;9.966;2023-10-08T00:40:53;8.73;;;3.22;;
56746;SDS011;42623;49.978;9.966;2023-10-08T00:41:05;8.05;;;2.83;;
56746;SDS011;42623;49.978;9.966;2023-10-08T00:41:17;6.72;;;2.92;;
56746;SDS011;42623;49.978;9.966;2023-10-08T00:41:31;8.20;;;3.60;;
56746;SDS011;42623;49.978;9.966;2023-10-08T00:41:44;7.00;;;3.42;;
56746;SDS011;42623;49.978;9.966;2023-10-08T00:41:54;6.05;;;3.10;;
56746;SDS011;42623;49.978;9.966;2023-10-08T00:42:08;5.53;;;2.85;;
56746;SDS011;42623;49.978;9.966;2023-10-08T00:42:18;6.27;;;3.03;;
56746;SDS011;42623;49.978;9.966;2023-10-08T00:42:28;6.33;;;3.20;;
56746;SDS011;42623;49.978;9.966;2023-10-08T00:42:38;6.47;;;3.00;;
56746;SDS011;42623;49.978;9.966;2023-10-08T00:42:55;6.25;;;2.63;;
56746;SDS011;42623;49.978;9.966;2023-10-08T00:43:06;6.57;;;2.88;;
56746;SDS011;42623;49.978;9.966;2023-10-08T00:43:32;5.70;;;2.95;;
56746;SDS011;42623;49.978;9.966;2023-10-08T00:43:44;7.28;;;3.35;;
56746;SDS011;42623;49.978;9.966;2023-10-08T00:43:55;7.93;;;3.30;;
56746;SDS011;42623;49.978;9.966;2023-10-08T00:44:12;6.03;;;2.83;;
56746;SDS011;42623;49.978;9.966;2023-10-08T00:44:24;5.75;;;2.85;;
56746;SDS011;42623;49.978;9.966;2023-10-08T00:44:39;5.72;;;2.66;;
56746;SDS011;42623;49.978;9.966;2023-10-08T00:45:01;5.78;;;2.64;;
56746;SDS011;42623;49.978;9.966;2023-10-08T00:45:14;6.38;;;2.80;;
56746;SDS011;42623;49.978;9.966;2023-10-08T00:45:24;6.03;;;2.63;;
56746;SDS011;42623;49.978;9.966;2023-10-08T00:45:35;5.80;;;2.92;;
56746;SDS011;42623;49.978;9.966;2023-10-08T00:45:45;5.40;;;2.90;;
56746;SDS011;42623;49.978;9.966;2023-10-08T00:46:03;5.07;;;2.70;;
56746;SDS011;42623;49.978;9.966;2023-10-08T00:46:15;5.68;;;2.65;;
56746;SDS011;42623;49.978;9.966;2023-10-08T00:46:34;6.30;;;3.00;;
56746;SDS011;42623;49.978;9.966;2023-10-08T00:46:52;6.38;;;3.13;;
56746;SDS011;42623;49.978;9.966;2023-10-08T00:47:03;6.32;;;3.08;;
56746;SDS011;42623;49.978;9.966;2023-10-08T00:47:15;6.18;;;3.20;;
56746;SDS011;42623;49.978;9.966;2023-10-08T00:47:26;5.78;;;3.15;;
56746;SDS011;42623;49.978;9.966;2023-10-08T00:47:38;5.78;;;3.05;;
56746;SDS011;42623;49.978;9.966;2023-10-08T00:47:52;5.45;;;2.72;;
56746;SDS011;42623;49.978;9.966;2023-10-08T00:48:06;5.60;;;2.78;;
56746;SDS011;42623;49.978;9.966;2023-10-08T00:48:16;6.22;;;2.67;;
56746;SDS011;42623;49.978;9.966;2023-10-08T00:48:28;5.95;;;2.50;;
56746;SDS011;42623;49.978;9.966;2023-10-08T00:48:45;5.47;;;2.80;;
56746;SDS011;42623;49.978;9.966;2023-10-08T00:48:56;5.60;;;2.78;;
56746;SDS011;42623;49.978;9.966;2023-10-08T00:49:07;5.72;;;2.60;;
56746;SDS011;42623;49.978;9.966;2023-10-08T00:49:34;6.78;;;2.75;;
56746;SDS011;42623;49.978;9.966;2023-10-08T00:50:04;6.85;;;3.25;;
56746;SDS011;42623;49.978;9.966;2023-10-08T00:50:17;5.57;;;3.05;;
56746;SDS011;42623;49.978;9.966;2023-10-08T00:50:31;5.88;;;3.08;;
56746;SDS011;42623;49.978;9.966;2023-10-08T00:50:52;6.20;;;2.85;;
56746;SDS011;42623;49.978;9.966;2023-10-08T00:51:05;5.70;;;2.80;;
56746;SDS011;42623;49.978;9.966;2023-10-08T00:51:33;8.40;;;2.88;;
56746;SDS011;42623;49.978;9.966;2023-10-08T00:51:51;7.53;;;2.95;;
56746;SDS011;42623;49.978;9.966;2023-10-08T00:52:28;5.40;;;2.53;;
56746;SDS011;42623;49.978;9.966;2023-10-08T00:52:48;5.85;;;2.38;;
56746;SDS011;42623;49.978;9.966;2023-10-08T00:53:13;5.35;;;2.42;;
56746;SDS011;42623;49.978;9.966;2023-10-08T00:53:31;6.07;;;2.70;;
56746;SDS011;42623;49.978;9.966;2023-10-08T00:53:56;7.00;;;2.85;;
56746;SDS011;42623;49.978;9.966;2023-10-08T00:54:09;7.07;;;3.00;;
56746;SDS011;42623;49.978;9.966;2023-10-08T00:54:20;5.72;;;2.78;;
56746;SDS011;42623;49.978;9.966;2023-10-08T00:54:30;5.25;;;2.53;;
56746;SDS011;42623;49.978;9.966;2023-10-08T00:54:49;5.43;;;2.50;;
56746;SDS011;42623;49.978;9.966;2023-10-08T00:55:18;5.50;;;2.65;;
56746;SDS011;42623;49.978;9.966;2023-10-08T00:55:38;5.30;;;2.40;;
56746;SDS011;42623;49.978;9.966;2023-10-08T00:55:49;5.75;;;2.70;;
56746;SDS011;42623;49.978;9.966;2023-10-08T00:56:09;6.03;;;2.80;;
56746;SDS011;42623;49.978;9.966;2023-10-08T00:56:27;5.90;;;2.64;;
56746;SDS011;42623;49.978;9.966;2023-10-08T00:56:55;6.35;;;2.92;;
56746;SDS011;42623;49.978;9.966;2023-10-08T00:57:08;7.35;;;2.95;;
56746;SDS011;42623;49.978;9.966;2023-10-08T00:57:22;7.57;;;3.30;;
56746;SDS011;42623;49.978;9.966;2023-10-08T00:57:33;6.65;;;3.25;;
56746;SDS011;42623;49.978;9.966;2023-10-08T00:57:46;5.97;;;2.95;;
56746;SDS011;42623;49.978;9.966;2023-10-08T00:57:59;6.05;;;3.17;;
56746;SDS011;42623;49.978;9.966;2023-10-08T00:58:18;6.60;;;3.30;;
56746;SDS011;42623;49.978;9.966;2023-10-08T00:58:34;6.25;;;2.97;;
56746;SDS011;42623;49.978;9.966;2023-10-08T00:58:45;5.90;;;2.83;;
56746;SDS011;42623;49.978;9.966;2023-10-08T00:59:02;6.45;;;2.97;;
56746;SDS011;42623;49.978;9.966;2023-10-08T00:59:16;6.75;;;3.38;;
56746;SDS011;42623;49.978;9.966;2023-10-08T00:59:26;6.47;;;3.25;;
56746;SDS011;42623;49.978;9.966;2023-10-08T00:59:43;5.90;;;2.95;;
56746;SDS011;42623;49.978;9.966;2023-10-08T00:59:55;5.50;;;2.80;;
56746;SDS011;42623;49.978;9.966;2023-10-08T01:00:07;5.60;;;2.72;;
56746;SDS011;42623;49.978;9.966;2023-10-08T01:00:32;4.90;;;2.75;;
56746;SDS011;42623;49.978;9.966;2023-10-08T01:00:47;5.40;;;2.90;;
56746;SDS011;42623;49.978;9.966;2023-10-08T01:01:02;5.75;;;2.95;;
56746;SDS011;42623;49.978;9.966;2023-10-08T01:01:13;5.72;;;3.03;;
56746;SDS011;42623;49.978;9.966;2023-10-08T01:01:26;5.78;;;3.15;;
56746;SDS011;42623;49.978;9.966;2023-10-08T01:01:38;6.25;;;3.42;;
56746;SDS011;42623;49.978;9.966;2023-10-08T01:01:49;6.05;;;3.35;;
56746;SDS011;42623;49.978;9.966;2023-10-08T01:02:10;5.60;;;2.80;;
56746;SDS011;42623;49.978;9.966;2023-10-08T01:02:26;5.97;;;2.95;;
56746;SDS011;42623;49.978;9.966;2023-10-08T01:02:52;6.07;;;3.17;;
56746;SDS011;42623;49.978;9.966;2023-10-08T01:03:10;6.78;;;3.42;;
56746;SDS011;42623;49.978;9.966;2023-10-08T01:03:26;5.97;;;3.25;;
56746;SDS011;42623;49.978;9.966;2023-10-08T01:03:37;5.70;;;3.00;;
56746;SDS011;42623;49.978;9.966;2023-10-08T01:03:54;5.40;;;2.75;;
56746;SDS011;42623;49.978;9.966;2023-10-08T01:04:05;5.82;;;2.95;;
56746;SDS011;42623;49.978;9.966;2023-10-08T01:04:22;6.63;;;3.25;;
56746;SDS011;42623;49.978;9.966;2023-10-08T01:04:33;7.07;;;3.60;;
56746;SDS011;42623;49.978;9.966;2023-10-08T01:04:44;6.72;;;3.28;;
56746;SDS011;42623;49.978;9.966;2023-10-08T01:04:55;6.57;;;3.30;;
56746;SDS011;42623;49.978;9.966;2023-10-08T01:05:06;6.38;;;2.88;;
56746;SDS011;42623;49.978;9.966;2023-10-08T01:05:19;6.45;;;3.00;;
56746;SDS011;42623;49.978;9.966;2023-10-08T01:05:35;5.30;;;2.88;;
56746;SDS011;42623;49.978;9.966;2023-10-08T01:05:56;4.38;;;2.15;;
56746;SDS011;42623;49.978;9.966;2023-10-08T01:06:07;5.93;;;2.40;;
56746;SDS011;42623;49.978;9.966;2023-10-08T01:06:20;5.90;;;2.42;;
56746;SDS011;42623;49.978;9.966;2023-10-08T01:06:30;6.63;;;2.73;;
56746;SDS011;42623;49.978;9.966;2023-10-08T01:06:41;5.53;;;2.67;;
56746;SDS011;42623;49.978;9.966;2023-10-08T01:06:51;6.22;;;2.83;;
56746;SDS011;42623;49.978;9.966;2023-10-08T01:07:06;6.13;;;2.58;;
56746;SDS011;42623;49.978;9.966;2023-10-08T01:07:23;6.80;;;2.72;;
56746;SDS011;42623;49.978;9.966;2023-10-08T01:07:34;6.40;;;2.75;;
56746;SDS011;42623;49.978;9.966;2023-10-08T01:07:46;5.40;;;2.53;;
56746;SDS011;42623;49.978;9.966;2023-10-08T01:07:58;5.68;;;2.70;;
56746;SDS011;42623;49.978;9.966;2023-10-08T01:08:09;5.83;;;3.00;;
56746;SDS011;42623;49.978;9.966;2023-10-08T01:08:22;6.22;;;2.95;;
56746;SDS011;42623;49.978;9.966;2023-10-08T01:08:42;6.40;;;3.00;;
56746;SDS011;42623;49.978;9.966;2023-10-08T01:09:00;5.82;;;2.45;;
56746;SDS011;42623;49.978;9.966;2023-10-08T01:09:27;5.05;;;2.53;;
56746;SDS011;42623;49.978;9.966;2023-10-08T01:09:47;7.60;;;2.80;;
56746;SDS011;42623;49.978;9.966;2023-10-08T01:10:01;7.55;;;2.85;;
56746;SDS011;42623;49.978;9.966;2023-10-08T01:10:20;5.88;;;2.75;;
56746;SDS011;42623;49.978;9.966;2023-10-08T01:10:30;7.90;;;3.03;;
56746;SDS011;42623;49.978;9.966;2023-10-08T01:10:40;8.83;;;3.70;;
56746;SDS011;42623;49.978;9.966;2023-10-08T01:10:53;9.05;;;3.85;;
56746;SDS011;42623;49.978;9.966;2023-10-08T01:11:43;5.72;;;2.47;;
56746;SDS011;42623;49.978;9.966;2023-10-08T01:12:19;8.20;;;3.05;;
56746;SDS011;42623;49.978;9.966;2023-10-08T01:12:36;5.78;;;2.72;;
56746;SDS011;42623;49.978;9.966;2023-10-08T01:13:02;6.88;;;2.80;;
56746;SDS011;42623;49.978;9.966;2023-10-08T01:13:21;6.05;;;2.80;;
56746;SDS011;42623;49.978;9.966;2023-10-08T01:13:32;6.32;;;2.83;;
56746;SDS011;42623;49.978;9.966;2023-10-08T01:13:46;5.78;;;2.55;;
56746;SDS011;42623;49.978;9.966;2023-10-08T01:13:56;5.75;;;2.63;;
56746;SDS011;42623;49.978;9.966;2023-10-08T01:14:08;5.65;;;2.78;;
56746;SDS011;42623;49.978;9.966;2023-10-08T01:14:18;6.07;;;3.10;;
56746;SDS011;42623;49.978;9.966;2023-10-08T01:14:35;5.65;;;2.80;;
56746;SDS011;42623;49.978;9.966;2023-10-08T01:14:46;5.85;;;2.72;;
56746;SDS011;42623;49.978;9.966;2023-10-08T01:14:58;6.15;;;2.60;;
56746;SDS011;42623;49.978;9.966;2023-10-08T01:15:15;5.93;;;2.60;;
56746;SDS011;42623;49.978;9.966;2023-10-08T01:15:33;5.90;;;3.00;;
56746;SDS011;42623;49.978;9.966;2023-10-08T01:15:45;5.55;;;2.70;;
56746;SDS011;42623;49.978;9.966;2023-10-08T01:15:59;5.45;;;2.75;;
56746;SDS011;42623;49.978;9.966;2023-10-08T01:16:12;6.13;;;3.22;;
56746;SDS011;42623;49.978;9.966;2023-10-08T01:16:22;8.03;;;3.73;;
56746;SDS011;42623;49.978;9.966;2023-10-08T01:16:33;8.63;;;3.70;;
56746;SDS011;42623;49.978;9.966;2023-10-08T01:16:44;8.23;;;3.47;;
56746;SDS011;42623;49.978;9.966;2023-10-08T01:16:57;6.35;;;3.10;;
56746;SDS011;42623;49.978;9.966;2023-10-08T01:17:09;6.47;;;3.25;;
56746;SDS011;42623;49.978;9.966;2023-10-08T01:17:20;6.40;;;3.00;;
56746;SDS011;42623;49.978;9.966;2023-10-08T01:17:34;5.28;;;2.42;;
56746;SDS011;42623;49.978;9.966;2023-10-08T01:17:56;6.93;;;2.78;;
56746;SDS011;42623;49.978;9.966;2023-10-08T01:18:14;9.00;;;3.08;;
56746;SDS011;42623;49.978;9.966;2023-10-08T01:18:25;7.50;;;2.97;;
56746;SDS011;42623;49.978;9.966;2023-10-08T01:18:42;5.82;;;2.90;;
56746;SDS011;42623;49.978;9.966;2023-10-08T01:19:00;5.63;;;2.88;;
56746;SDS011;42623;49.978;9.966;2023-10-08T01:19:10;5.38;;;2.75;;
56746;SDS011;42623;49.978;9.966;2023-10-08T01:19:23;5.22;;;2.65;;
56746;SDS011;42623;49.978;9.966;2023-10-08T01:19:35;5.32;;;2.63;;
56746;SDS011;42623;49.978;9.966;2023-10-08T01:19:51;5.80;;;2.72;;
56746;SDS011;42623;49.978;9.966;2023-10-08T01:20:06;6.18;;;2.70;;
56746;SDS011;42623;49.978;9.966;2023-10-08T01:20:30;8.68;;;3.25;;
56746;SDS011;42623;49.978;9.966;2023-10-08T01:20:43;8.85;;;3.58;;
56746;SDS011;42623;49.978;9.966;2023-10-08T01:21:00;6.40;;;3.03;;
56746;SDS011;42623;49.978;9.966;2023-10-08T01:21:16;5.35;;;2.58;;
56746;SDS011;42623;49.978;9.966;2023-10-08T01:21:41;5.63;;;2.72;;
56746;SDS011;42623;49.978;9.966;2023-10-08T01:21:51;5.80;;;2.87;;
56746;SDS011;42623;49.978;9.966;2023-10-08T01:22:05;5.50;;;2.88;;
56746;SDS011;42623;49.978;9.966;2023-10-08T01:22:32;5.45;;;2.40;;
56746;SDS011;42623;49.978;9.966;2023-10-08T01:22:43;6.50;;;2.75;;
56746;SDS011;42623;49.978;9.966;2023-10-08T01:22:53;6.80;;;2.93;;
56746;SDS011;42623;49.978;9.966;2023-10-08T01:23:31;7.10;;;3.15;;
56746;SDS011;42623;49.978;9.966;2023-10-08T01:23:42;5.93;;;2.80;;
56746;SDS011;42623;49.978;9.966;2023-10-08T01:23:52;5.88;;;2.70;;
56746;SDS011;42623;49.978;9.966;2023-10-08T01:24:04;5.78;;;2.55;;
56746;SDS011;42623;49.978;9.966;2023-10-08T01:24:16;6.20;;;2.70;;
56746;SDS011;42623;49.978;9.966;2023-10-08T01:24:27;5.68;;;2.85;;
56746;SDS011;42623;49.978;9.966;2023-10-08T01:24:40;6.95;;;3.22;;
56746;SDS011;42623;49.978;9.966;2023-10-08T01:24:52;7.05;;;3.30;;
56746;SDS011;42623;49.978;9.966;2023-10-08T01:25:03;7.67;;;3.47;;
56746;SDS011;42623;49.978;9.966;2023-10-08T01:25:13;6.50;;;3.13;;
56746;SDS011;42623;49.978;9.966;2023-10-08T01:25:31;6.53;;;3.28;;
56746;SDS011;42623;49.978;9.966;2023-10-08T01:25:41;8.30;;;3.50;;
56746;SDS011;42623;49.978;9.966;2023-10-08T01:25:52;8.35;;;3.20;;
56746;SDS011;42623;49.978;9.966;2023-10-08T01:26:20;7.05;;;3.05;;